Time;durP1;ratioP1;P1;durP2;ratioP2;P2;SDS_P1;SDS_P2;PMS_P1;PMS_P2;Temp;Humidity;BMP_temperature;BMP_pressure;BME280_temperature;BME280_humidity;BME280_pressure;Samples;Min_cycle;Max_cycle;Signal;HPM_P1;HPM_P2
2021/11/17 02:28:13;;;;;;;;;;;8.40;72.00;;;;;;5023551;28;83746;-60
2021/11/17 02:30:58;;;;;;;;;;;8.50;71.80;;;;;;5019469;28;82133;-61
2021/11/17 02:33:33;;;;;;;;;;;8.40;72.00;;;;;;5020677;28;82638;-60
2021/11/17 02:36:16;;;;;;;;;;;8.40;72.00;;;;;;5021873;28;81466;-60
2021/11/17 02:38:42;;;;;;;;;;;8.40;72.10;;;;;;5024089;28;83346;-60
2021/11/17 02:41:10;;;;;;;;;;;8.40;72.00;;;;;;5019296;28;82316;-61
2021/11/17 02:43:55;;;;;;;;;;;8.40;72.00;;;;;;5021332;28;83129;-60
2021/11/17 02:46:27;;;;;;;;;;;8.40;71.90;;;;;;5022986;28;83683;-60
2021/11/17 02:48:58;;;;;;;;;;;8.40;72.00;;;;;;5022974;28;84451;-61
2021/11/17 02:51:36;;;;;;;;;;;8.40;72.00;;;;;;5023270;28;82168;-61
2021/11/17 02:54:12;;;;;;;;;;;8.40;72.20;;;;;;5021170;28;82332;-61
2021/11/17 02:56:38;;;;;;;;;;;8.40;72.10;;;;;;5020193;28;83157;-60
2021/11/17 02:59:19;;;;;;;;;;;8.40;71.90;;;;;;5021429;28;82076;-60
2021/11/17 03:02:03;;;;;;;;;;;8.40;71.80;;;;;;5025003;28;81355;-60
2021/11/17 03:04:40;;;;;;;;;;;8.40;71.90;;;;;;5018834;28;82118;-60
2021/11/17 03:07:12;;;;;;;;;;;8.40;72.00;;;;;;5022731;28;83778;-61
2021/11/17 03:09:57;;;;;;;;;;;8.30;72.10;;;;;;5021925;28;84106;-60
2021/11/17 03:12:23;;;;;;;;;;;8.30;72.20;;;;;;5023154;28;82089;-60
2021/11/17 03:15:08;;;;;;;;;;;8.40;72.00;;;;;;5021463;28;82341;-60
2021/11/17 03:17:53;;;;;;;;;;;8.30;72.00;;;;;;5010948;28;83271;-60
2021/11/17 03:20:18;;;;;;;;;;;8.30;72.30;;;;;;5021235;28;82111;-61
2021/11/17 03:22:50;;;;;;;;;;;8.20;72.50;;;;;;5020952;28;82410;-61
2021/11/17 03:25:28;;;;;;;;;;;8.20;72.20;;;;;;5020800;28;83509;-60
2021/11/17 03:28:10;;;;;;;;;;;8.20;72.00;;;;;;5021888;28;81356;-60
2021/11/17 03:30:44;;;;;;;;;;;8.20;72.40;;;;;;5019233;28;82271;-60
2021/11/17 03:33:33;;;;;;;;;;;8.20;72.30;;;;;;5024088;28;82209;-61
2021/11/17 03:36:10;;;;;;;;;;;8.20;72.50;;;;;;5023750;28;83478;-60
2021/11/17 03:38:52;;;;;;;;;;;8.10;72.50;;;;;;5024384;28;82608;-60
2021/11/17 03:41:33;;;;;;;;;;;8.20;72.20;;;;;;5023839;28;82098;-60
2021/11/17 03:44:01;;;;;;;;;;;8.20;72.10;;;;;;5024954;28;82138;-60
2021/11/17 03:46:36;;;;;;;;;;;8.20;72.20;;;;;;5021814;28;83343;-60
2021/11/17 03:49:02;;;;;;;;;;;8.20;72.30;;;;;;5025231;28;82109;-61
2021/11/17 03:51:30;;;;;;;;;;;8.20;71.90;;;;;;5022858;28;83143;-60
2021/11/17 03:54:05;;;;;;;;;;;8.20;71.90;;;;;;5026109;28;81377;-60
2021/11/17 03:56:31;;;;;;;;;;;8.20;71.90;;;;;;5022690;28;82881;-60
2021/11/17 03:59:02;;;;;;;;;;;8.30;71.80;;;;;;5022103;28;84746;-60
2021/11/17 04:01:27;;;;;;;;;;;8.20;71.80;;;;;;5021881;28;83037;-61
2021/11/17 04:03:53;;;;;;;;;;;8.20;71.80;;;;;;5023535;28;84488;-61
2021/11/17 04:06:21;;;;;;;;;;;8.20;71.90;;;;;;5024802;28;84496;-61
2021/11/17 04:08:53;;;;;;;;;;;8.20;72.10;;;;;;5025295;28;82101;-61
2021/11/17 04:11:30;;;;;;;;;;;8.20;72.10;;;;;;5022528;28;82107;-60
2021/11/17 04:14:14;;;;;;;;;;;8.20;71.90;;;;;;5024968;28;83622;-61
2021/11/17 04:16:40;;;;;;;;;;;8.20;72.10;;;;;;5023344;28;82071;-60
2021/11/17 04:19:05;;;;;;;;;;;8.20;72.00;;;;;;5023097;28;82482;-60
2021/11/17 04:21:49;;;;;;;;;;;8.20;71.90;;;;;;5022119;28;82165;-60
2021/11/17 04:24:15;;;;;;;;;;;8.20;71.80;;;;;;5023290;28;82206;-61
2021/11/17 04:26:56;;;;;;;;;;;8.20;72.50;;;;;;5023209;28;84113;-61
2021/11/17 04:29:30;;;;;;;;;;;8.20;71.80;;;;;;5024194;28;82120;-61
2021/11/17 04:31:56;;;;;;;;;;;8.20;71.70;;;;;;5027067;28;83246;-61
2021/11/17 04:34:28;;;;;;;;;;;8.20;72.00;;;;;;5024461;28;82093;-61
2021/11/17 04:37:17;;;;;;;;;;;8.20;71.90;;;;;;5024046;28;82463;-61
2021/11/17 04:39:42;;;;;;;;;;;8.20;71.70;;;;;;5001384;28;84721;-60
2021/11/17 04:42:14;;;;;;;;;;;8.20;72.00;;;;;;5022412;28;82155;-60
2021/11/17 04:44:45;;;;;;;;;;;8.10;71.80;;;;;;5022600;28;82501;-61
2021/11/17 04:47:20;;;;;;;;;;;8.10;71.80;;;;;;5021775;28;84429;-60
2021/11/17 04:49:46;;;;;;;;;;;8.10;71.80;;;;;;5024186;28;82099;-60
2021/11/17 04:52:11;;;;;;;;;;;8.10;72.10;;;;;;5024920;28;83054;-60
2021/11/17 04:55:09;;;;;;;;;;;8.10;72.10;;;;;;5024789;28;83652;-60
2021/11/17 04:57:41;;;;;;;;;;;8.10;72.00;;;;;;5002190;28;82351;-60
2021/11/17 05:00:06;;;;;;;;;;;8.10;72.00;;;;;;5024265;28;84494;-61
2021/11/17 05:02:44;;;;;;;;;;;8.10;71.90;;;;;;5023971;28;82978;-60
2021/11/17 05:05:28;;;;;;;;;;;8.10;71.80;;;;;;5023858;28;82090;-60
2021/11/17 05:07:57;;;;;;;;;;;8.10;71.80;;;;;;5020399;28;82463;-61
2021/11/17 05:10:22;;;;;;;;;;;8.10;71.80;;;;;;5023570;28;81373;-60
2021/11/17 05:13:08;;;;;;;;;;;8.10;72.00;;;;;;5023362;28;82083;-60
2021/11/17 05:15:52;;;;;;;;;;;8.10;71.90;;;;;;5016430;28;82196;-60
2021/11/17 05:18:20;;;;;;;;;;;8.10;71.90;;;;;;5023497;28;83118;-60
2021/11/17 05:21:01;;;;;;;;;;;8.10;71.80;;;;;;5023247;28;84434;-61
2021/11/17 05:23:42;;;;;;;;;;;8.10;72.10;;;;;;5020204;28;82175;-60
2021/11/17 05:26:11;;;;;;;;;;;8.00;72.00;;;;;;5019867;28;83762;-60
2021/11/17 05:28:36;;;;;;;;;;;8.00;72.10;;;;;;5021462;28;83988;-61
2021/11/17 05:31:11;;;;;;;;;;;8.00;72.00;;;;;;5021028;28;82163;-60
2021/11/17 05:33:39;;;;;;;;;;;8.00;71.90;;;;;;5021528;28;82618;-60
2021/11/17 05:36:23;;;;;;;;;;;8.10;72.10;;;;;;5024112;28;81998;-61
2021/11/17 05:38:51;;;;;;;;;;;8.00;71.80;;;;;;5022383;28;82718;-60
2021/11/17 05:41:25;;;;;;;;;;;8.00;72.10;;;;;;5023716;28;82082;-60
2021/11/17 05:43:51;;;;;;;;;;;8.00;72.00;;;;;;5021356;28;83038;-60
2021/11/17 05:46:22;;;;;;;;;;;8.00;72.00;;;;;;5023132;28;83906;-60
2021/11/17 05:49:06;;;;;;;;;;;8.00;72.00;;;;;;5023331;28;82885;-60
2021/11/17 05:51:32;;;;;;;;;;;8.00;71.90;;;;;;5019976;28;82128;-61
2021/11/17 05:53:57;;;;;;;;;;;8.00;72.10;;;;;;5020796;28;82351;-61
2021/11/17 05:56:29;;;;;;;;;;;8.00;71.90;;;;;;5022349;28;83092;-61
2021/11/17 05:58:57;;;;;;;;;;;8.00;71.80;;;;;;5022643;28;82136;-60
2021/11/17 06:01:35;;;;;;;;;;;8.00;71.80;;;;;;5022418;28;81744;-61
2021/11/17 06:04:05;;;;;;;;;;;8.00;71.80;;;;;;5023295;28;82243;-60
2021/11/17 06:06:38;;;;;;;;;;;8.00;71.90;;;;;;5020490;28;83749;-61
2021/11/17 06:09:06;;;;;;;;;;;8.00;71.80;;;;;;5023351;28;85992;-60
2021/11/17 06:11:45;;;;;;;;;;;8.00;71.80;;;;;;5021081;28;82100;-60
2021/11/17 06:14:13;;;;;;;;;;;8.00;71.80;;;;;;5023561;28;83112;-60
2021/11/17 06:16:41;;;;;;;;;;;7.90;71.80;;;;;;5023181;28;82228;-60
2021/11/17 06:19:07;;;;;;;;;;;8.00;72.00;;;;;;5020679;28;82105;-60
2021/11/17 06:21:33;;;;;;;;;;;7.90;71.80;;;;;;5020721;28;82972;-61
2021/11/17 06:24:01;;;;;;;;;;;7.90;71.80;;;;;;5021884;28;83546;-60
2021/11/17 06:26:29;;;;;;;;;;;7.90;72.00;;;;;;5022509;28;84309;-60
2021/11/17 06:28:57;;;;;;;;;;;7.90;72.00;;;;;;5023470;28;84997;-60
2021/11/17 06:31:23;;;;;;;;;;;7.90;72.00;;;;;;5023088;28;82101;-60
2021/11/17 06:33:49;;;;;;;;;;;7.90;72.00;;;;;;5022552;28;83041;-60
2021/11/17 06:36:16;;;;;;;;;;;7.90;72.10;;;;;;5023094;28;83190;-60
2021/11/17 06:38:42;;;;;;;;;;;7.90;72.10;;;;;;5022397;28;82180;-60
2021/11/17 06:41:08;;;;;;;;;;;7.90;71.90;;;;;;5021193;28;83063;-60
2021/11/17 06:43:33;;;;;;;;;;;7.90;71.90;;;;;;5020181;28;84680;-60
2021/11/17 06:45:59;;;;;;;;;;;7.90;71.90;;;;;;5022854;28;82149;-60
2021/11/17 06:48:26;;;;;;;;;;;7.90;72.00;;;;;;5019947;28;84879;-60
2021/11/17 06:51:11;;;;;;;;;;;7.90;72.10;;;;;;5023902;28;81387;-60
2021/11/17 06:53:36;;;;;;;;;;;7.90;72.10;;;;;;5019070;28;82149;-60
2021/11/17 06:56:02;;;;;;;;;;;7.90;72.00;;;;;;5019531;28;82672;-60
2021/11/17 06:58:28;;;;;;;;;;;7.80;72.20;;;;;;5018290;28;83069;-61
2021/11/17 07:00:54;;;;;;;;;;;7.90;72.20;;;;;;5019535;28;83157;-60
2021/11/17 07:03:19;;;;;;;;;;;7.80;72.10;;;;;;5020607;28;82996;-60
2021/11/17 07:05:45;;;;;;;;;;;7.80;72.10;;;;;;5024297;28;82105;-61
2021/11/17 07:08:11;;;;;;;;;;;7.80;72.00;;;;;;5028998;28;82098;-60
2021/11/17 07:10:37;;;;;;;;;;;7.80;72.00;;;;;;5025408;28;82094;-60
2021/11/17 07:13:03;;;;;;;;;;;7.80;72.30;;;;;;5025046;28;82924;-60
2021/11/17 07:15:29;;;;;;;;;;;7.80;72.10;;;;;;5024169;28;82448;-60
2021/11/17 07:17:55;;;;;;;;;;;7.80;72.10;;;;;;5023047;28;83647;-60
2021/11/17 07:20:21;;;;;;;;;;;7.80;72.30;;;;;;5024547;28;83721;-60
2021/11/17 07:22:47;;;;;;;;;;;7.80;72.20;;;;;;5023904;28;84282;-60
2021/11/17 07:25:14;;;;;;;;;;;7.80;72.20;;;;;;5025381;28;82433;-60
2021/11/17 07:27:40;;;;;;;;;;;7.80;72.30;;;;;;5025963;28;83611;-60
2021/11/17 07:30:07;;;;;;;;;;;7.80;72.30;;;;;;5028985;28;82777;-60
2021/11/17 07:32:32;;;;;;;;;;;7.80;72.30;;;;;;5023745;28;83585;-60
2021/11/17 07:34:58;;;;;;;;;;;7.80;72.40;;;;;;5024398;28;84895;-60
2021/11/17 07:37:24;;;;;;;;;;;7.80;72.20;;;;;;5024309;28;82234;-60
2021/11/17 07:39:50;;;;;;;;;;;7.80;72.20;;;;;;5025828;28;82476;-60
2021/11/17 07:42:15;;;;;;;;;;;7.80;72.40;;;;;;5024327;28;84370;-60
2021/11/17 07:44:43;;;;;;;;;;;7.80;72.40;;;;;;5023735;28;82110;-60
2021/11/17 07:47:09;;;;;;;;;;;7.80;72.20;;;;;;5023487;28;84710;-60
2021/11/17 07:49:34;;;;;;;;;;;7.80;72.40;;;;;;5024631;28;82877;-60
2021/11/17 07:52:00;;;;;;;;;;;7.80;72.50;;;;;;5029377;28;82086;-60
2021/11/17 07:54:26;;;;;;;;;;;7.80;72.50;;;;;;5025681;28;83194;-60
2021/11/17 07:56:52;;;;;;;;;;;7.80;72.30;;;;;;5023805;28;82233;-61
2021/11/17 07:59:19;;;;;;;;;;;7.80;72.50;;;;;;5023644;28;82115;-60
2021/11/17 08:01:46;;;;;;;;;;;7.70;72.30;;;;;;5021205;28;83818;-60
2021/11/17 08:04:14;;;;;;;;;;;7.70;72.40;;;;;;5026554;28;81503;-60
2021/11/17 08:06:40;;;;;;;;;;;7.80;72.60;;;;;;5023449;28;82113;-60
2021/11/17 08:09:06;;;;;;;;;;;7.70;72.40;;;;;;5022312;28;82615;-60
2021/11/17 08:11:32;;;;;;;;;;;7.70;72.70;;;;;;5023307;28;83040;-60
2021/11/17 08:13:58;;;;;;;;;;;7.70;72.70;;;;;;5024205;28;84430;-60
2021/11/17 08:16:23;;;;;;;;;;;7.70;72.70;;;;;;5021290;28;83211;-60
2021/11/17 08:18:49;;;;;;;;;;;7.70;72.60;;;;;;5022159;28;83734;-60
2021/11/17 08:21:15;;;;;;;;;;;7.70;72.70;;;;;;5023349;28;83357;-60
2021/11/17 08:23:41;;;;;;;;;;;7.70;72.80;;;;;;5023693;28;82073;-60
2021/11/17 08:26:07;;;;;;;;;;;7.70;72.60;;;;;;5023760;28;82094;-60
2021/11/17 08:28:33;;;;;;;;;;;7.70;72.60;;;;;;5021960;28;82950;-60
2021/11/17 08:30:59;;;;;;;;;;;7.70;72.70;;;;;;5020911;28;83081;-60
2021/11/17 08:33:25;;;;;;;;;;;7.70;72.70;;;;;;5027132;28;83289;-60
2021/11/17 08:35:50;;;;;;;;;;;7.70;72.90;;;;;;5023596;28;83054;-60
2021/11/17 08:38:18;;;;;;;;;;;7.70;72.70;;;;;;5025850;28;83656;-60
2021/11/17 08:40:48;;;;;;;;;;;7.70;72.80;;;;;;5022235;28;82952;-60
2021/11/17 08:43:14;;;;;;;;;;;7.70;72.80;;;;;;5021666;28;82121;-60
2021/11/17 08:45:40;;;;;;;;;;;7.70;72.80;;;;;;5020611;28;83843;-60
2021/11/17 08:48:07;;;;;;;;;;;7.70;72.70;;;;;;5025488;28;83071;-60
2021/11/17 08:50:33;;;;;;;;;;;7.70;72.80;;;;;;5024054;28;82119;-60
2021/11/17 08:53:00;;;;;;;;;;;7.70;72.80;;;;;;5023367;28;83623;-60
2021/11/17 08:55:27;;;;;;;;;;;7.70;72.80;;;;;;5023852;28;85786;-60
2021/11/17 08:57:53;;;;;;;;;;;7.70;72.80;;;;;;5020840;28;82109;-60
2021/11/17 09:00:20;;;;;;;;;;;7.70;72.90;;;;;;5019886;28;83188;-60
2021/11/17 09:02:47;;;;;;;;;;;7.70;72.90;;;;;;5025144;28;83032;-60
2021/11/17 09:05:14;;;;;;;;;;;7.70;72.80;;;;;;5022816;28;84312;-60
2021/11/17 09:07:41;;;;;;;;;;;7.60;73.10;;;;;;5020589;28;83245;-60
2021/11/17 09:10:08;;;;;;;;;;;7.60;73.10;;;;;;5020651;28;82177;-60
2021/11/17 09:12:34;;;;;;;;;;;7.70;73.20;;;;;;5023869;28;83591;-60
2021/11/17 09:15:00;;;;;;;;;;;7.60;73.20;;;;;;5023721;28;83091;-60
2021/11/17 09:17:25;;;;;;;;;;;7.60;73.20;;;;;;5027312;28;81356;-60
2021/11/17 09:19:51;;;;;;;;;;;7.60;73.40;;;;;;5023381;28;82723;-60
2021/11/17 09:22:17;;;;;;;;;;;7.60;73.10;;;;;;5023063;28;82180;-60
2021/11/17 09:24:42;;;;;;;;;;;7.60;73.10;;;;;;5022644;28;83118;-60
2021/11/17 09:27:08;;;;;;;;;;;7.60;73.40;;;;;;5022691;28;82083;-60
2021/11/17 09:29:34;;;;;;;;;;;7.70;73.00;;;;;;5021329;28;82111;-60
2021/11/17 09:32:00;;;;;;;;;;;7.60;73.10;;;;;;5022250;28;83739;-60
2021/11/17 09:34:26;;;;;;;;;;;7.70;73.30;;;;;;5022008;28;83531;-60
2021/11/17 09:36:51;;;;;;;;;;;7.60;73.10;;;;;;5022135;28;82147;-60
2021/11/17 09:39:17;;;;;;;;;;;7.70;73.20;;;;;;5025281;28;84247;-60
2021/11/17 09:41:44;;;;;;;;;;;7.70;73.10;;;;;;5024363;28;81317;-60
2021/11/17 09:44:13;;;;;;;;;;;7.70;73.10;;;;;;5022534;28;82119;-60
2021/11/17 09:46:40;;;;;;;;;;;7.70;72.90;;;;;;5019552;28;85501;-60
2021/11/17 09:49:09;;;;;;;;;;;7.70;73.00;;;;;;5022976;28;83090;-60
2021/11/17 09:51:42;;;;;;;;;;;7.80;73.00;;;;;;5021212;28;83535;-60
2021/11/17 09:54:11;;;;;;;;;;;7.70;73.00;;;;;;5020749;28;82357;-60
2021/11/17 09:56:40;;;;;;;;;;;7.80;72.90;;;;;;5021971;28;82121;-60
2021/11/17 09:59:19;;;;;;;;;;;7.80;72.90;;;;;;5024454;28;82573;-60
2021/11/17 10:01:46;;;;;;;;;;;7.80;72.90;;;;;;5023962;28;83872;-61
2021/11/17 10:04:16;;;;;;;;;;;7.80;73.00;;;;;;5022869;28;82179;-60
2021/11/17 10:15:03;;;;;;;;;;;7.80;73.00;;;;;;5021245;28;83145;-60
2021/11/17 10:17:28;;;;;;;;;;;7.80;73.00;;;;;;5023625;28;82067;-60
2021/11/17 10:20:12;;;;;;;;;;;7.90;73.10;;;;;;5023115;28;83643;-60
2021/11/17 10:22:39;;;;;;;;;;;7.80;73.00;;;;;;5026631;28;83833;-60
2021/11/17 10:25:22;;;;;;;;;;;7.80;72.90;;;;;;5023280;28;82955;-61
2021/11/17 10:27:50;;;;;;;;;;;7.80;73.20;;;;;;5019922;28;84044;-61
2021/11/17 10:30:23;;;;;;;;;;;7.80;73.00;;;;;;5022507;28;82144;-60
2021/11/17 10:33:03;;;;;;;;;;;7.80;73.10;;;;;;5020117;28;84418;-60
2021/11/17 10:35:31;;;;;;;;;;;7.80;72.90;;;;;;5019056;28;84188;-61
2021/11/17 10:38:04;;;;;;;;;;;7.80;73.10;;;;;;5022439;28;82114;-60
2021/11/17 10:40:31;;;;;;;;;;;7.80;73.20;;;;;;5025225;28;83840;-60
2021/11/17 10:43:02;;;;;;;;;;;7.80;72.90;;;;;;5026424;28;82737;-61
2021/11/17 10:45:45;;;;;;;;;;;7.80;73.20;;;;;;5029733;28;82118;-60
2021/11/17 10:48:22;;;;;;;;;;;7.70;73.20;;;;;;5022975;28;84428;-60
2021/11/17 10:50:48;;;;;;;;;;;7.70;73.30;;;;;;5027323;28;83049;-61
2021/11/17 10:53:24;;;;;;;;;;;7.70;73.40;;;;;;5026443;28;82184;-61
2021/11/17 10:55:53;;;;;;;;;;;7.70;73.30;;;;;;5024629;28;82609;-61
2021/11/17 10:58:21;;;;;;;;;;;7.70;73.40;;;;;;5026962;28;81450;-60
2021/11/17 11:00:58;;;;;;;;;;;7.80;73.20;;;;;;5022854;28;82138;-60
2021/11/17 11:03:24;;;;;;;;;;;7.80;73.60;;;;;;5022426;28;84552;-61
2021/11/17 11:05:52;;;;;;;;;;;7.80;73.30;;;;;;5026360;28;83756;-61
2021/11/17 11:08:20;;;;;;;;;;;7.80;74.00;;;;;;5027858;28;83112;-61
2021/11/17 11:10:47;;;;;;;;;;;7.80;73.30;;;;;;5026529;28;83540;-60
2021/11/17 11:13:19;;;;;;;;;;;7.80;73.50;;;;;;5024821;28;82155;-60
2021/11/17 11:15:50;;;;;;;;;;;7.80;73.50;;;;;;5022583;28;82770;-61
2021/11/17 11:18:16;;;;;;;;;;;7.80;73.30;;;;;;5022657;28;82115;-61
2021/11/17 11:20:47;;;;;;;;;;;7.80;73.50;;;;;;5023538;28;83954;-60
2021/11/17 11:23:19;;;;;;;;;;;7.80;73.40;;;;;;5023153;28;84070;-61
2021/11/17 11:26:03;;;;;;;;;;;7.80;73.40;;;;;;5026228;28;82220;-61
2021/11/17 11:28:36;;;;;;;;;;;7.80;73.40;;;;;;5022294;28;82391;-61
2021/11/17 11:31:03;;;;;;;;;;;7.80;73.60;;;;;;5026160;28;83115;-60
2021/11/17 11:33:31;;;;;;;;;;;7.80;73.40;;;;;;5021724;28;84503;-60
2021/11/17 11:36:16;;;;;;;;;;;7.80;73.50;;;;;;5024776;28;83095;-61
2021/11/17 11:38:44;;;;;;;;;;;7.80;73.90;;;;;;5002382;28;82123;-61
2021/11/17 11:41:12;;;;;;;;;;;7.80;73.30;;;;;;5024481;28;83392;-60
2021/11/17 11:43:39;;;;;;;;;;;7.80;73.50;;;;;;5024101;28;82616;-60
2021/11/17 11:46:23;;;;;;;;;;;7.80;73.40;;;;;;5021547;28;82087;-60
2021/11/17 11:48:54;;;;;;;;;;;7.90;73.50;;;;;;5022833;28;84234;-61
2021/11/17 11:51:22;;;;;;;;;;;7.90;73.20;;;;;;5021188;28;83335;-60
2021/11/17 11:53:51;;;;;;;;;;;7.90;73.30;;;;;;5026698;28;82184;-60
2021/11/17 11:56:21;;;;;;;;;;;7.90;73.40;;;;;;5025221;28;83531;-60
2021/11/17 11:58:47;;;;;;;;;;;7.90;73.30;;;;;;5024966;28;82101;-60
2021/11/17 12:01:17;;;;;;;;;;;7.90;73.30;;;;;;5025002;28;83048;-60
2021/11/17 12:03:46;;;;;;;;;;;7.90;73.20;;;;;;5024916;28;82517;-60
2021/11/17 12:06:15;;;;;;;;;;;7.90;73.30;;;;;;5024366;28;82134;-60
2021/11/17 12:08:59;;;;;;;;;;;7.90;73.40;;;;;;5023356;28;82557;-60
2021/11/17 12:11:26;;;;;;;;;;;7.90;73.30;;;;;;5024261;28;84349;-60
2021/11/17 12:13:55;;;;;;;;;;;7.90;73.30;;;;;;5022402;28;82962;-60
2021/11/17 12:16:39;;;;;;;;;;;8.00;73.30;;;;;;5025330;28;82116;-60
2021/11/17 12:19:07;;;;;;;;;;;7.90;73.50;;;;;;5024102;28;82073;-60
2021/11/17 12:21:38;;;;;;;;;;;7.90;73.70;;;;;;5023430;28;83846;-60
2021/11/17 12:24:24;;;;;;;;;;;7.90;73.40;;;;;;5025172;28;82419;-61
2021/11/17 12:27:12;;;;;;;;;;;7.90;73.50;;;;;;5025509;28;82093;-61
2021/11/17 12:29:46;;;;;;;;;;;7.90;73.40;;;;;;5015321;28;82859;-60
2021/11/17 12:32:12;;;;;;;;;;;7.90;73.40;;;;;;5023699;28;82977;-61
2021/11/17 12:34:39;;;;;;;;;;;7.90;73.40;;;;;;5024804;28;82140;-61
2021/11/17 12:37:09;;;;;;;;;;;7.90;73.40;;;;;;5026233;28;82159;-60
2021/11/17 12:39:55;;;;;;;;;;;7.90;73.70;;;;;;5025788;28;81349;-61
2021/11/17 12:42:29;;;;;;;;;;;7.90;73.50;;;;;;5017661;28;83754;-61
2021/11/17 12:44:55;;;;;;;;;;;7.90;73.60;;;;;;5021595;28;84618;-60
2021/11/17 12:47:30;;;;;;;;;;;7.90;73.60;;;;;;5021679;28;83058;-57
2021/11/17 12:50:07;;;;;;;;;;;7.90;73.60;;;;;;5010842;28;82084;-60
2021/11/17 12:52:51;;;;;;;;;;;7.90;73.60;;;;;;5003847;28;83276;-62
2021/11/17 12:55:41;;;;;;;;;;;7.80;74.20;;;;;;5001057;28;82081;-63
2021/11/17 12:58:27;;;;;;;;;;;7.80;73.90;;;;;;5003104;28;82182;-65
2021/11/17 13:00:53;;;;;;;;;;;7.90;74.20;;;;;;5006165;28;82551;-61
2021/11/17 13:03:23;;;;;;;;;;;7.90;74.10;;;;;;5002760;28;82324;-62
2021/11/17 13:05:59;;;;;;;;;;;7.80;73.80;;;;;;5004631;28;81893;-61
2021/11/17 13:08:31;;;;;;;;;;;7.90;73.30;;;;;;5004004;28;83627;-60
2021/11/17 13:11:05;;;;;;;;;;;8.00;72.20;;;;;;5004168;28;82101;-60
2021/11/17 13:13:37;;;;;;;;;;;8.10;72.30;;;;;;5004441;28;85372;-60
2021/11/17 13:16:08;;;;;;;;;;;8.10;72.50;;;;;;5004958;28;82077;-60
2021/11/17 13:18:50;;;;;;;;;;;8.10;72.70;;;;;;5005129;28;83111;-60
2021/11/17 13:21:22;;;;;;;;;;;8.10;72.70;;;;;;5004603;28;83291;-60
2021/11/17 13:24:00;;;;;;;;;;;8.10;72.70;;;;;;5006378;28;82931;-61
2021/11/17 13:26:30;;;;;;;;;;;8.10;72.70;;;;;;5001334;28;84537;-60
2021/11/17 13:28:56;;;;;;;;;;;8.10;73.00;;;;;;5003070;28;82136;-60
2021/11/17 13:31:22;;;;;;;;;;;8.10;72.90;;;;;;5004501;28;81534;-61
2021/11/17 13:34:03;;;;;;;;;;;8.10;73.00;;;;;;5004221;28;82702;-60
2021/11/17 13:36:35;;;;;;;;;;;8.10;73.20;;;;;;5003763;28;83373;-60
2021/11/17 13:39:01;;;;;;;;;;;8.20;72.90;;;;;;5002675;28;83053;-60
2021/11/17 13:41:26;;;;;;;;;;;8.10;73.10;;;;;;5001581;28;86392;-57
2021/11/17 13:43:52;;;;;;;;;;;8.20;73.20;;;;;;5001155;28;82103;-61
2021/11/17 13:46:20;;;;;;;;;;;8.10;71.10;;;;;;5002555;28;82098;-51
2021/11/17 13:48:47;;;;;;;;;;;8.10;70.70;;;;;;5003755;28;82096;-48
2021/11/17 13:51:14;;;;;;;;;;;8.10;70.10;;;;;;5001209;28;82106;-60
2021/11/17 13:53:40;;;;;;;;;;;8.10;70.40;;;;;;5000846;28;82964;-62
2021/11/17 13:56:08;;;;;;;;;;;8.20;71.10;;;;;;5004112;28;81350;-60
2021/11/17 13:58:34;;;;;;;;;;;8.20;71.50;;;;;;4999648;28;82774;-66
2021/11/17 14:01:00;;;;;;;;;;;8.10;71.70;;;;;;5000858;28;83636;-61
2021/11/17 14:03:26;;;;;;;;;;;8.20;71.40;;;;;;4999796;28;83122;-60
2021/11/17 14:05:51;;;;;;;;;;;8.20;70.00;;;;;;5000182;28;83483;-66
2021/11/17 14:08:18;;;;;;;;;;;8.20;70.00;;;;;;5003820;28;83959;-68
2021/11/17 14:10:44;;;;;;;;;;;8.20;70.20;;;;;;5001283;28;82552;-61
2021/11/17 14:13:10;;;;;;;;;;;8.20;71.40;;;;;;5001344;28;83150;-57
2021/11/17 14:15:36;;;;;;;;;;;8.20;73.70;;;;;;5001601;28;82117;-61
2021/11/17 14:18:02;;;;;;;;;;;8.20;71.20;;;;;;5003389;28;82078;-62
2021/11/17 14:20:28;;;;;;;;;;;8.30;70.20;;;;;;5004245;28;82459;-63
2021/11/17 14:22:53;;;;;;;;;;;8.30;69.30;;;;;;5003184;28;83516;-59
2021/11/17 14:25:20;;;;;;;;;;;8.30;69.00;;;;;;4999407;28;82939;-58
2021/11/17 14:28:06;;;;;;;;;;;8.30;69.60;;;;;;5001192;28;84750;-61
2021/11/17 14:30:41;;;;;;;;;;;8.20;69.40;;;;;;5001261;28;82105;-63
2021/11/17 14:33:07;;;;;;;;;;;8.20;70.40;;;;;;5000900;28;84426;-60
2021/11/17 14:35:35;;;;;;;;;;;8.30;71.40;;;;;;4999393;28;82116;-59
2021/11/17 14:38:01;;;;;;;;;;;9.10;70.60;;;;;;5000145;28;82628;-60
2021/11/17 14:40:28;;;;;;;;;;;9.80;69.10;;;;;;4999707;28;82741;-73
2021/11/17 14:42:53;;;;;;;;;;;10.40;67.80;;;;;;5000055;28;83179;-48
2021/11/17 14:45:24;;;;;;;;;;;11.00;66.90;;;;;;5000220;28;82222;-69
2021/11/17 14:47:49;;;;;;;;;;;11.30;66.10;;;;;;5000587;28;82553;-70
2021/11/17 14:50:15;;;;;;;;;;;11.60;65.00;;;;;;5002826;28;82244;-59
2021/11/17 14:52:41;;;;;;;;;;;11.80;64.40;;;;;;4997799;28;83686;-57
2021/11/17 14:55:08;;;;;;;;;;;12.20;64.10;;;;;;5001868;28;82444;-63
2021/11/17 14:57:36;;;;;;;;;;;12.40;63.80;;;;;;5003023;28;82158;-61
2021/11/17 15:00:08;;;;;;;;;;;12.70;63.20;;;;;;4999862;28;82351;-56
2021/11/17 15:02:33;;;;;;;;;;;13.00;62.50;;;;;;4998546;28;82146;-59
2021/11/17 15:04:59;;;;;;;;;;;13.20;62.20;;;;;;5000575;28;82566;-61
2021/11/17 15:07:24;;;;;;;;;;;13.40;61.60;;;;;;5002086;28;84432;-59
2021/11/17 15:14:40;;;;;;;;;;;13.70;60.60;;;;;;4909724;27;3386642;-57
2021/11/17 15:17:06;;;;;;;;;;;13.10;62.30;;;;;;5102303;27;80360;-53
2021/11/17 15:19:31;;;;;;;;;;;12.50;64.00;;;;;;5101720;27;81121;-57
2021/11/17 15:21:57;;;;;;;;;;;12.00;65.20;;;;;;5098192;27;80360;-54
2021/11/17 15:24:23;;;;;;;;;;;11.80;66.20;;;;;;5100134;27;80301;-59
2021/11/17 15:26:50;;;;;;;;;;;11.50;66.90;;;;;;5101143;27;80338;-60
2021/11/17 15:29:16;;;;;;;;;;;11.30;67.40;;;;;;5100721;27;82939;-50
2021/11/17 15:31:42;;;;;;;;;;;11.10;67.90;;;;;;5101592;27;80429;-62
2021/11/17 15:34:08;;;;;;;;;;;11.00;67.90;;;;;;5104578;27;80926;-57
2021/11/17 15:36:33;;;;;;;;;;;11.00;67.50;;;;;;5099565;27;80374;-58
2021/11/17 15:38:59;;;;;;;;;;;10.80;68.00;;;;;;5098738;27;81099;-58
2021/11/17 15:41:26;;;;;;;;;;;10.80;68.60;;;;;;5098278;27;81913;-51
2021/11/17 15:43:52;;;;;;;;;;;11.00;68.30;;;;;;5102535;27;80511;-59
2021/11/17 15:46:18;;;;;;;;;;;11.50;66.80;;;;;;5102808;27;83610;-58
2021/11/17 15:48:44;;;;;;;;;;;12.00;65.60;;;;;;5101878;27;81369;-57
2021/11/17 15:51:21;;;;;;;;;;;12.40;64.70;;;;;;5101841;27;80354;-61
2021/11/17 15:53:47;;;;;;;;;;;12.80;63.80;;;;;;5098862;27;80386;-65
2021/11/17 15:56:14;;;;;;;;;;;13.00;63.30;;;;;;5101510;27;81815;-62
2021/11/17 15:58:40;;;;;;;;;;;13.20;62.60;;;;;;5101699;27;80731;-64
2021/11/17 16:01:06;;;;;;;;;;;13.50;62.30;;;;;;5101047;27;80837;-61
2021/11/17 16:03:32;;;;;;;;;;;13.70;61.90;;;;;;5101603;27;80361;-61
2021/11/17 16:06:01;;;;;;;;;;;13.90;61.60;;;;;;5098289;27;80378;-66
2021/11/17 16:08:26;;;;;;;;;;;13.90;61.20;;;;;;5099579;27;80827;-71
2021/11/17 16:10:52;;;;;;;;;;;13.30;62.40;;;;;;5101879;27;80376;-61
2021/11/17 16:13:18;;;;;;;;;;;12.80;63.80;;;;;;5109494;27;80405;-67
2021/11/17 16:15:43;;;;;;;;;;;12.50;64.60;;;;;;5121382;27;81450;-65
2021/11/17 16:18:09;;;;;;;;;;;12.20;65.20;;;;;;5123508;27;80392;-61
2021/11/17 16:20:45;;;;;;;;;;;12.00;66.10;;;;;;5121314;27;81303;-65
2021/11/17 16:25:44;;;;;;;;;;;11.70;66.70;;;;;;5108017;27;80491;-64
2021/11/17 16:28:12;;;;;;;;;;;11.50;67.10;;;;;;5103553;27;81886;-66
2021/11/17 16:30:38;;;;;;;;;;;11.50;67.60;;;;;;5107454;27;80344;-71
2021/11/17 16:33:04;;;;;;;;;;;11.90;67.20;;;;;;5106316;27;80578;-62
2021/11/17 16:35:30;;;;;;;;;;;12.60;65.40;;;;;;5107147;27;81420;-64
2021/11/17 16:37:55;;;;;;;;;;;13.10;64.10;;;;;;5107158;27;80413;-65
2021/11/17 16:40:24;;;;;;;;;;;13.50;63.10;;;;;;5110106;27;80855;-66
2021/11/17 16:42:49;;;;;;;;;;;13.80;62.30;;;;;;5104565;27;80518;-68
2021/11/17 16:45:15;;;;;;;;;;;14.10;61.80;;;;;;5105829;27;80399;-61
2021/11/17 16:47:41;;;;;;;;;;;14.30;61.30;;;;;;5104950;27;81646;-66
2021/11/17 16:50:08;;;;;;;;;;;13.70;62.60;;;;;;5106458;27;80393;-64
2021/11/17 16:52:34;;;;;;;;;;;13.10;64.50;;;;;;5105415;27;81079;-67
2021/11/17 16:55:05;;;;;;;;;;;12.70;65.70;;;;;;5105239;27;83047;-68
2021/11/17 16:57:31;;;;;;;;;;;12.40;66.60;;;;;;5104701;27;80365;-65
2021/11/17 16:59:57;;;;;;;;;;;12.20;67.00;;;;;;5105117;27;80399;-66
2021/11/17 17:02:23;;;;;;;;;;;12.00;67.30;;;;;;5107540;27;81535;-64
2021/11/17 17:04:49;;;;;;;;;;;11.90;67.60;;;;;;5104745;27;80369;-65
2021/11/17 17:07:16;;;;;;;;;;;11.80;68.10;;;;;;5104464;27;81918;-64
2021/11/17 17:09:42;;;;;;;;;;;11.70;68.40;;;;;;5107480;27;80392;-63
2021/11/17 17:12:09;;;;;;;;;;;11.50;68.60;;;;;;5107329;27;81651;-65
2021/11/17 17:14:35;;;;;;;;;;;11.60;68.90;;;;;;5105940;27;81374;-69
2021/11/17 17:17:00;;;;;;;;;;;12.20;67.60;;;;;;5105189;27;80496;-69
2021/11/17 17:19:26;;;;;;;;;;;12.70;66.10;;;;;;5105677;27;81276;-61
2021/11/17 17:21:52;;;;;;;;;;;13.20;64.90;;;;;;5106522;27;82845;-60
2021/11/17 17:24:17;;;;;;;;;;;13.70;63.90;;;;;;5110630;27;80393;-61
2021/11/17 17:26:43;;;;;;;;;;;14.00;63.20;;;;;;5108227;27;81273;-61